METAR Analyzer

一覧表示

Hello, Guest. (Login)

RJCC/CTS  -  札幌/新千歳

観測日時
2021-09-25 00:00 (UTC) (26分前)
気温
16
露点
10
湿数
6
相対湿度
67.5%
QNH
1028.1hPa
推定現地気圧
1025.1hPa
推定海面気圧
1028.1hPa
体感温度
6.2
(無風時)
17.3
HI
15.4
気温前日比
±0
体感温度前日比
+1.7
HI前日比
-0.1
水平視程
>10000m
鉛直視程
データなし
雲底高度
No dense clouds
V/I
VMC (VFR)
RVR
No RVR data
卓越風
13kt from 340°
ガスト
No gust
降水
報告なし
その他の天気
報告なし
少しの(1/8) 積雲 @ 3000ft AGL

RJCC 250000Z 34013KT 9999 FEW030 16/10 Q1028 RMK 1CU030 A3036

RJTT/HND  -  東京/羽田

観測日時
2021-09-25 00:00 (UTC) (26分前)
気温
22
露点
19
湿数
3
相対湿度
83.1%
QNH
1024.7hPa
推定現地気圧
1024.0hPa
推定海面気圧
1024.7hPa
体感温度
14.4
(無風時)
22.7
HI
22.4
気温前日比
-4
体感温度前日比
-5
HI前日比
-3.7
水平視程
>10000m
鉛直視程
データなし
雲底高度
2000ft AGL
V/I
VMC (VFR)
RVR
No RVR data
卓越風
13kt from 30°
ガスト
No gust
降水
しゅう雨性の (周辺において)
その他の天気
報告なし
少しの(1/8) 積雲 @ 1500ft AGL / 隙間のある(5/8) 積雲 @ 2000ft AGL / 隙間のある(7/8) 層積雲 @ 3000ft AGL

RJTT 250000Z 03013KT 9999 VCSH FEW015 BKN020 BKN030 22/19 Q1024 NOSIG RMK 1CU015 5CU020 7SC030 A3026

RJAA/NRT  -  東京/成田

観測日時
2021-09-25 00:00 (UTC) (26分前)
気温
23
露点
19
湿数
4
相対湿度
78.2%
QNH
1024.7hPa
推定現地気圧
1023.4hPa
推定海面気圧
1024.7hPa
体感温度
16.4
(無風時)
23.3
HI
23.4
気温前日比
-2
体感温度前日比
-4.8
HI前日比
-1.9
水平視程
>10000m
鉛直視程
データなし
雲底高度
4500ft AGL
V/I
VMC (VFR)
RVR
No RVR data
卓越風
9kt from 40°
ガスト
No gust
降水
弱いしゅう雨性の雨
その他の天気
報告なし
少しの(1/8) 積雲 @ 1500ft AGL / 散在する(3/8) 積雲 @ 2000ft AGL / 隙間のある(6/8) 積雲 @ 4500ft AGL

RJAA 250000Z 04009KT 9999 -SHRA FEW015 SCT020 BKN045 23/19 Q1024 NOSIG RMK 1CU015 3CU020 6CU045 A3026

RJGG/NGO  -  名古屋/中部

観測日時
2021-09-25 00:00 (UTC) (26分前)
気温
25
露点
19
湿数
6
相対湿度
69.4%
QNH
1021hPa
推定現地気圧
1020.5hPa
推定海面気圧
1021.0hPa
体感温度
19.1
(無風時)
24.4
HI
25.4
気温前日比
+1
体感温度前日比
+2.1
HI前日比
+1.1
水平視程
>10000m
鉛直視程
データなし
雲底高度
No dense clouds
V/I
VMC (VFR)
RVR
No RVR data
卓越風
7kt from 330° (250° ~ 20°)
ガスト
No gust
降水
報告なし
その他の天気
報告なし
少しの雲 @ 3000ft AGL

RJGG 250000Z 33007KT 250V020 9999 FEW030 25/19 Q1021 NOSIG

RJOO/ITM  -  大阪/伊丹

観測日時
2021-09-25 00:00 (UTC) (26分前)
気温
25
露点
19
湿数
6
相対湿度
69.4%
QNH
1021.7hPa
推定現地気圧
1020.2hPa
推定海面気圧
1021.6hPa
体感温度
19.4
(無風時)
24.4
HI
25.4
気温前日比
±0
体感温度前日比
-1.8
HI前日比
+0.1
水平視程
>10000m
鉛直視程
データなし
雲底高度
No dense clouds
V/I
VMC (VFR)
RVR
No RVR data
卓越風
6kt from 50° (20° ~ 90°)
ガスト
No gust
降水
報告なし
その他の天気
報告なし
少しの(1/8) 積雲 @ 2500ft AGL

RJOO 250000Z 05006KT 020V090 9999 FEW025 25/19 Q1021 RMK 1CU025 A3017

RJBB/KIX  -  大阪/関西

観測日時
2021-09-25 00:00 (UTC) (26分前)
気温
24
露点
18
湿数
6
相対湿度
69.2%
QNH
1021hPa
推定現地気圧
1020.4hPa
推定海面気圧
1021.0hPa
体感温度
17.2
(無風時)
23.6
HI
24.3
気温前日比
±0
体感温度前日比
-1
HI前日比
±0
水平視程
>10000m
鉛直視程
データなし
雲底高度
No dense clouds
V/I
VMC (VFR)
RVR
No RVR data
卓越風
10kt from 40°
ガスト
No gust
降水
報告なし
その他の天気
報告なし
少しの雲 @ 2000ft AGL

RJBB 250000Z 04010KT 9999 FEW020 24/18 Q1021 NOSIG

RJFF/FUK  -  福岡

観測日時
2021-09-25 00:00 (UTC) (26分前)
気温
24
露点
18
湿数
6
相対湿度
69.2%
QNH
1020hPa
推定現地気圧
1018.9hPa
推定海面気圧
1020.0hPa
体感温度
19.6
(無風時)
23.6
HI
24.3
気温前日比
±0
体感温度前日比
+1.3
HI前日比
+0.3
水平視程
>10000m
鉛直視程
データなし
雲底高度
Unknown
V/I
判定不可
RVR
No RVR data
卓越風
3kt from 200° (130° ~ 250°)
ガスト
No gust
降水
報告なし
その他の天気
報告なし
少しの雲 @ 2500ft AGL / 隙間のある雲 @ 不明な高さ

RJFF 250000Z 20003KT 130V250 9999 FEW025 BKN/// 24/18 Q1020 NOSIG

ROAH/OKA  -  那覇

観測日時
2021-09-25 00:00 (UTC) (26分前)
気温
29
露点
25
湿数
4
相対湿度
79.1%
QNH
1013.9hPa
推定現地気圧
1013.5hPa
推定海面気圧
1013.8hPa
体感温度
24.3
(無風時)
28.2
HI
34.5
気温前日比
±0
体感温度前日比
+1.2
HI前日比
+2.5
水平視程
>10000m
鉛直視程
データなし
雲底高度
No dense clouds
V/I
VMC (VFR)
RVR
No RVR data
卓越風
9kt from 60°
ガスト
No gust
降水
しゅう雨性の (周辺において)
その他の天気
報告なし
少しの(1/8) 積雲 @ 2000ft AGL

ROAH 250000Z 06009KT 9999 VCSH FEW020 29/25 Q1013 RMK 1CU020 A2994

287.3msec